sensor_id;sensor_type;location;lat;lon;timestamp;pressure;altitude;pressure_sealevel;temperature;humidity
47220;BME280;32961;51.936;4.788;2023-04-05T00:00:11;102525.91;;;4.73;74.23
47220;BME280;32961;51.936;4.788;2023-04-05T00:02:39;102511.78;;;4.68;74.59
47220;BME280;32961;51.936;4.788;2023-04-05T00:05:08;102517.16;;;4.68;74.64
47220;BME280;32961;51.936;4.788;2023-04-05T00:07:38;102512.91;;;4.62;74.83
47220;BME280;32961;51.936;4.788;2023-04-05T00:10:06;102510.38;;;4.59;74.91
47220;BME280;32961;51.936;4.788;2023-04-05T00:12:34;102511.41;;;4.55;74.96
47220;BME280;32961;51.936;4.788;2023-04-05T00:15:02;102513.34;;;4.51;75.33
47220;BME280;32961;51.936;4.788;2023-04-05T00:17:30;102507.28;;;4.46;75.64
47220;BME280;32961;51.936;4.788;2023-04-05T00:19:58;102510.16;;;4.41;75.89
47220;BME280;32961;51.936;4.788;2023-04-05T00:22:27;102508.75;;;4.32;76.24
47220;BME280;32961;51.936;4.788;2023-04-05T00:24:58;102499.97;;;4.27;76.87
47220;BME280;32961;51.936;4.788;2023-04-05T00:27:26;102500.09;;;4.24;77.15
47220;BME280;32961;51.936;4.788;2023-04-05T00:29:54;102510.94;;;4.23;77.22
47220;BME280;32961;51.936;4.788;2023-04-05T00:32:22;102508.31;;;4.21;77.76
47220;BME280;32961;51.936;4.788;2023-04-05T00:34:50;102510.19;;;4.19;77.78
47220;BME280;32961;51.936;4.788;2023-04-05T00:37:17;102504.03;;;4.15;77.85
47220;BME280;32961;51.936;4.788;2023-04-05T00:39:45;102501.50;;;4.12;78.24
47220;BME280;32961;51.936;4.788;2023-04-05T00:42:15;102497.91;;;4.12;78.53
47220;BME280;32961;51.936;4.788;2023-04-05T00:44:42;102500.66;;;4.10;78.43
47220;BME280;32961;51.936;4.788;2023-04-05T00:47:10;102499.91;;;4.07;78.88
47220;BME280;32961;51.936;4.788;2023-04-05T00:49:39;102496.41;;;4.05;78.66
47220;BME280;32961;51.936;4.788;2023-04-05T00:52:07;102491.91;;;4.05;79.16
47220;BME280;32961;51.936;4.788;2023-04-05T00:54:35;102491.91;;;4.05;78.96
47220;BME280;32961;51.936;4.788;2023-04-05T00:57:04;102488.28;;;4.06;79.12
47220;BME280;32961;51.936;4.788;2023-04-05T00:59:34;102487.41;;;4.06;79.20
47220;BME280;32961;51.936;4.788;2023-04-05T01:02:06;102485.78;;;4.01;79.13
47220;BME280;32961;51.936;4.788;2023-04-05T01:04:35;102487.53;;;4.03;78.70
47220;BME280;32961;51.936;4.788;2023-04-05T01:07:08;102484.91;;;4.01;78.47
47220;BME280;32961;51.936;4.788;2023-04-05T01:09:44;102486.84;;;3.97;78.03
47220;BME280;32961;51.936;4.788;2023-04-05T01:12:16;102481.56;;;3.94;78.53
47220;BME280;32961;51.936;4.788;2023-04-05T01:14:48;102477.13;;;3.93;78.49
47220;BME280;32961;51.936;4.788;2023-04-05T01:17:16;102471.88;;;3.90;78.19
47220;BME280;32961;51.936;4.788;2023-04-05T01:19:48;102471.88;;;3.90;78.47
47220;BME280;32961;51.936;4.788;2023-04-05T01:23:03;102468.44;;;3.87;78.44
47220;BME280;32961;51.936;4.788;2023-04-05T01:25:56;102453.25;;;3.85;78.31
47220;BME280;32961;51.936;4.788;2023-04-05T01:28:38;102463.09;;;3.85;78.59
47220;BME280;32961;51.936;4.788;2023-04-05T01:31:12;102461.47;;;3.81;78.66
47220;BME280;32961;51.936;4.788;2023-04-05T01:33:45;102454.41;;;3.78;78.26
47220;BME280;32961;51.936;4.788;2023-04-05T01:36:20;102453.59;;;3.76;78.14
47220;BME280;32961;51.936;4.788;2023-04-05T01:38:51;102459.97;;;3.74;78.23
47220;BME280;32961;51.936;4.788;2023-04-05T01:41:21;102454.66;;;3.72;77.64
47220;BME280;32961;51.936;4.788;2023-04-05T01:43:49;102453.84;;;3.70;77.86
47220;BME280;32961;51.936;4.788;2023-04-05T01:46:19;102449.38;;;3.69;77.60
47220;BME280;32961;51.936;4.788;2023-04-05T01:48:46;102453.06;;;3.66;77.75
47220;BME280;32961;51.936;4.788;2023-04-05T01:51:14;102452.28;;;3.64;77.84
47220;BME280;32961;51.936;4.788;2023-04-05T01:53:42;102447.00;;;3.61;77.58
47220;BME280;32961;51.936;4.788;2023-04-05T01:56:10;102443.50;;;3.59;77.69
47220;BME280;32961;51.936;4.788;2023-04-05T01:58:37;102439.13;;;3.57;78.03
47220;BME280;32961;51.936;4.788;2023-04-05T02:01:05;102441.88;;;3.55;78.73
47220;BME280;32961;51.936;4.788;2023-04-05T02:03:34;102436.63;;;3.52;78.24
47220;BME280;32961;51.936;4.788;2023-04-05T02:06:03;102430.44;;;3.50;78.55
47220;BME280;32961;51.936;4.788;2023-04-05T02:08:31;102430.50;;;3.48;78.83
47220;BME280;32961;51.936;4.788;2023-04-05T02:11:00;102431.50;;;3.46;78.33
47220;BME280;32961;51.936;4.788;2023-04-05T02:13:27;102436.06;;;3.44;78.90
47220;BME280;32961;51.936;4.788;2023-04-05T02:15:55;102424.53;;;3.40;77.92
47220;BME280;32961;51.936;4.788;2023-04-05T02:18:23;102419.28;;;3.37;78.26
47220;BME280;32961;51.936;4.788;2023-04-05T02:21:02;102418.47;;;3.35;78.28
47220;BME280;32961;51.936;4.788;2023-04-05T02:23:30;102411.50;;;3.29;78.24
47220;BME280;32961;51.936;4.788;2023-04-05T02:25:58;102416.81;;;3.31;78.21
47220;BME280;32961;51.936;4.788;2023-04-05T02:28:26;102420.50;;;3.28;78.65
47220;BME280;32961;51.936;4.788;2023-04-05T02:30:54;102419.72;;;3.26;77.98
47220;BME280;32961;51.936;4.788;2023-04-05T02:33:22;102417.97;;;3.24;78.67
47220;BME280;32961;51.936;4.788;2023-04-05T02:35:52;102407.38;;;3.20;78.30
47220;BME280;32961;51.936;4.788;2023-04-05T02:38:21;102402.09;;;3.17;77.88
47220;BME280;32961;51.936;4.788;2023-04-05T02:40:49;102407.53;;;3.16;78.67
47220;BME280;32961;51.936;4.788;2023-04-05T02:43:17;102404.03;;;3.14;78.61
47220;BME280;32961;51.936;4.788;2023-04-05T02:45:45;102406.84;;;3.11;78.11
47220;BME280;32961;51.936;4.788;2023-04-05T02:48:13;102400.72;;;3.07;77.74
47220;BME280;32961;51.936;4.788;2023-04-05T02:50:40;102396.41;;;3.03;78.45
47220;BME280;32961;51.936;4.788;2023-04-05T02:53:08;102400.03;;;3.00;77.90
47220;BME280;32961;51.936;4.788;2023-04-05T02:55:38;102394.81;;;2.97;77.34
47220;BME280;32961;51.936;4.788;2023-04-05T02:58:07;102401.16;;;2.95;78.11
47220;BME280;32961;51.936;4.788;2023-04-05T03:00:35;102397.66;;;2.93;77.80
47220;BME280;32961;51.936;4.788;2023-04-05T03:03:04;102390.59;;;2.90;77.99
47220;BME280;32961;51.936;4.788;2023-04-05T03:05:32;102382.59;;;2.88;78.43
47220;BME280;32961;51.936;4.788;2023-04-05T03:07:59;102381.69;;;2.89;79.24
47220;BME280;32961;51.936;4.788;2023-04-05T03:10:28;102385.34;;;2.87;78.65
47220;BME280;32961;51.936;4.788;2023-04-05T03:13:01;102386.31;;;2.84;78.53
47220;BME280;32961;51.936;4.788;2023-04-05T03:15:31;102379.22;;;2.83;79.28
47220;BME280;32961;51.936;4.788;2023-04-05T03:17:59;102379.22;;;2.83;79.59
47220;BME280;32961;51.936;4.788;2023-04-05T03:20:27;102372.94;;;2.83;79.11
47220;BME280;32961;51.936;4.788;2023-04-05T03:22:54;102373.03;;;2.81;79.72
47220;BME280;32961;51.936;4.788;2023-04-05T03:25:23;102379.38;;;2.79;79.46
47220;BME280;32961;51.936;4.788;2023-04-05T03:27:51;102383.00;;;2.78;79.89
47220;BME280;32961;51.936;4.788;2023-04-05T03:30:21;102375.88;;;2.77;79.85
47220;BME280;32961;51.936;4.788;2023-04-05T03:32:48;102372.31;;;2.76;79.63
47220;BME280;32961;51.936;4.788;2023-04-05T03:35:16;102370.63;;;2.73;79.48
47220;BME280;32961;51.936;4.788;2023-04-05T03:37:44;102369.78;;;2.71;79.80
47220;BME280;32961;51.936;4.788;2023-04-05T03:40:12;102376.09;;;2.70;79.53
47220;BME280;32961;51.936;4.788;2023-04-05T03:42:40;102377.09;;;2.68;79.68
47220;BME280;32961;51.936;4.788;2023-04-05T03:45:10;102372.81;;;2.62;79.58
47220;BME280;32961;51.936;4.788;2023-04-05T03:47:39;102379.94;;;2.63;79.52
47220;BME280;32961;51.936;4.788;2023-04-05T03:50:07;102379.00;;;2.64;79.84
47220;BME280;32961;51.936;4.788;2023-04-05T03:52:35;102383.44;;;2.65;79.59
47220;BME280;32961;51.936;4.788;2023-04-05T03:55:04;102379.00;;;2.64;80.32
47220;BME280;32961;51.936;4.788;2023-04-05T03:57:32;102370.09;;;2.64;80.30
47220;BME280;32961;51.936;4.788;2023-04-05T04:00:00;102371.00;;;2.63;79.31
47220;BME280;32961;51.936;4.788;2023-04-05T04:02:29;102378.16;;;2.62;79.80
47220;BME280;32961;51.936;4.788;2023-04-05T04:04:58;102368.34;;;2.61;79.74
47220;BME280;32961;51.936;4.788;2023-04-05T04:07:26;102373.91;;;2.56;79.47
47220;BME280;32961;51.936;4.788;2023-04-05T04:09:54;102370.47;;;2.53;79.04
47220;BME280;32961;51.936;4.788;2023-04-05T04:12:22;102374.06;;;2.52;78.87
47220;BME280;32961;51.936;4.788;2023-04-05T04:14:49;102371.47;;;2.49;78.25
47220;BME280;32961;51.936;4.788;2023-04-05T04:17:25;102368.94;;;2.46;78.15
47220;BME280;32961;51.936;4.788;2023-04-05T04:19:53;102375.22;;;2.45;78.20
47220;BME280;32961;51.936;4.788;2023-04-05T04:22:23;102381.56;;;2.42;78.53
47220;BME280;32961;51.936;4.788;2023-04-05T04:24:52;102378.13;;;2.38;78.46
47220;BME280;32961;51.936;4.788;2023-04-05T04:27:20;102363.88;;;2.36;77.98
47220;BME280;32961;51.936;4.788;2023-04-05T04:29:48;102379.16;;;2.34;78.37
47220;BME280;32961;51.936;4.788;2023-04-05T04:32:22;102370.28;;;2.32;78.15
47220;BME280;32961;51.936;4.788;2023-04-05T04:34:52;102374.81;;;2.30;78.13
47220;BME280;32961;51.936;4.788;2023-04-05T04:37:22;102363.28;;;2.28;78.22
47220;BME280;32961;51.936;4.788;2023-04-05T04:39:55;102371.34;;;2.28;78.59
47220;BME280;32961;51.936;4.788;2023-04-05T04:42:31;102364.22;;;2.27;78.41
47220;BME280;32961;51.936;4.788;2023-04-05T04:45:05;102367.81;;;2.26;78.91
47220;BME280;32961;51.936;4.788;2023-04-05T04:47:33;102367.81;;;2.26;79.26
47220;BME280;32961;51.936;4.788;2023-04-05T04:50:00;102369.56;;;2.27;78.85
47220;BME280;32961;51.936;4.788;2023-04-05T04:52:32;102359.84;;;2.24;78.93
47220;BME280;32961;51.936;4.788;2023-04-05T04:55:00;102367.91;;;2.23;79.22
47220;BME280;32961;51.936;4.788;2023-04-05T04:57:28;102365.22;;;2.23;79.15
47220;BME280;32961;51.936;4.788;2023-04-05T04:59:56;102367.03;;;2.22;79.38
47220;BME280;32961;51.936;4.788;2023-04-05T05:02:24;102363.53;;;2.20;78.83
47220;BME280;32961;51.936;4.788;2023-04-05T05:04:56;102367.09;;;2.21;78.83
47220;BME280;32961;51.936;4.788;2023-04-05T05:07:23;102363.59;;;2.19;79.67
47220;BME280;32961;51.936;4.788;2023-04-05T05:09:52;102365.44;;;2.17;79.71
47220;BME280;32961;51.936;4.788;2023-04-05T05:12:21;102366.34;;;2.17;79.41
47220;BME280;32961;51.936;4.788;2023-04-05T05:14:49;102367.19;;;2.18;79.71
47220;BME280;32961;51.936;4.788;2023-04-05T05:17:16;102363.66;;;2.17;79.45
47220;BME280;32961;51.936;4.788;2023-04-05T05:19:44;102369.88;;;2.18;79.93
47220;BME280;32961;51.936;4.788;2023-04-05T05:22:12;102370.88;;;2.15;79.64
47220;BME280;32961;51.936;4.788;2023-04-05T05:24:40;102374.41;;;2.16;80.00
47220;BME280;32961;51.936;4.788;2023-04-05T05:27:09;102369.09;;;2.14;80.34
47220;BME280;32961;51.936;4.788;2023-04-05T05:29:37;102372.63;;;2.16;79.64
47220;BME280;32961;51.936;4.788;2023-04-05T05:32:04;102374.41;;;2.16;79.38
47220;BME280;32961;51.936;4.788;2023-04-05T05:34:33;102377.09;;;2.16;79.34
47220;BME280;32961;51.936;4.788;2023-04-05T05:37:01;102371.72;;;2.16;79.74
47220;BME280;32961;51.936;4.788;2023-04-05T05:39:28;102370.81;;;2.17;80.06
47220;BME280;32961;51.936;4.788;2023-04-05T05:41:56;102372.56;;;2.18;79.70
47220;BME280;32961;51.936;4.788;2023-04-05T05:44:25;102370.78;;;2.18;79.76
47220;BME280;32961;51.936;4.788;2023-04-05T05:46:53;102371.63;;;2.19;79.33
47220;BME280;32961;51.936;4.788;2023-04-05T05:49:21;102371.63;;;2.19;80.27
47220;BME280;32961;51.936;4.788;2023-04-05T05:51:49;102360.03;;;2.18;80.13
47220;BME280;32961;51.936;4.788;2023-04-05T05:54:18;102369.78;;;2.21;79.49
47220;BME280;32961;51.936;4.788;2023-04-05T05:56:46;102370.59;;;2.23;80.31
47220;BME280;32961;51.936;4.788;2023-04-05T05:59:13;102372.34;;;2.24;80.07
47220;BME280;32961;51.936;4.788;2023-04-05T06:01:43;102374.09;;;2.25;79.99
47220;BME280;32961;51.936;4.788;2023-04-05T06:04:12;102372.28;;;2.25;79.46
47220;BME280;32961;51.936;4.788;2023-04-05T06:06:40;102373.13;;;2.28;80.17
47220;BME280;32961;51.936;4.788;2023-04-05T06:09:09;102372.19;;;2.29;80.27
47220;BME280;32961;51.936;4.788;2023-04-05T06:11:37;102380.13;;;2.32;80.03
47220;BME280;32961;51.936;4.788;2023-04-05T06:14:21;102379.16;;;2.34;79.86
47220;BME280;32961;51.936;4.788;2023-04-05T06:16:50;102372.84;;;2.35;80.17
47220;BME280;32961;51.936;4.788;2023-04-05T06:19:18;102383.47;;;2.38;80.29
47220;BME280;32961;51.936;4.788;2023-04-05T06:21:46;102392.25;;;2.44;79.74
47220;BME280;32961;51.936;4.788;2023-04-05T06:24:13;102392.19;;;2.45;79.78
47220;BME280;32961;51.936;4.788;2023-04-05T06:26:41;102381.41;;;2.47;79.88
47220;BME280;32961;51.936;4.788;2023-04-05T06:29:09;102377.69;;;2.51;80.47
47220;BME280;32961;51.936;4.788;2023-04-05T06:31:37;102380.16;;;2.57;80.73
47220;BME280;32961;51.936;4.788;2023-04-05T06:34:08;102379.09;;;2.61;80.84
47220;BME280;32961;51.936;4.788;2023-04-05T06:36:36;102375.44;;;2.64;80.25
47220;BME280;32961;51.936;4.788;2023-04-05T06:39:03;102377.94;;;2.68;80.97
47220;BME280;32961;51.936;4.788;2023-04-05T06:41:31;102376.69;;;2.79;81.03
47220;BME280;32961;51.936;4.788;2023-04-05T06:43:59;102379.03;;;2.88;81.25
47220;BME280;32961;51.936;4.788;2023-04-05T06:46:27;102377.75;;;2.98;80.60
47220;BME280;32961;51.936;4.788;2023-04-05T06:48:55;102372.84;;;3.10;80.54
47220;BME280;32961;51.936;4.788;2023-04-05T06:51:24;102370.75;;;3.18;80.81
47220;BME280;32961;51.936;4.788;2023-04-05T06:53:52;102371.22;;;3.29;80.41
47220;BME280;32961;51.936;4.788;2023-04-05T06:56:20;102372.59;;;3.40;80.13
47220;BME280;32961;51.936;4.788;2023-04-05T06:58:48;102364.94;;;3.52;79.81
47220;BME280;32961;51.936;4.788;2023-04-05T07:01:17;102369.72;;;3.68;79.71
47220;BME280;32961;51.936;4.788;2023-04-05T07:03:45;102368.19;;;3.83;79.26
47220;BME280;32961;51.936;4.788;2023-04-05T07:06:13;102371.19;;;3.97;79.00
47220;BME280;32961;51.936;4.788;2023-04-05T07:08:42;102379.59;;;4.10;78.49
47220;BME280;32961;51.936;4.788;2023-04-05T07:11:11;102368.31;;;4.23;77.78
47220;BME280;32961;51.936;4.788;2023-04-05T07:13:40;102368.69;;;4.36;76.93
47220;BME280;32961;51.936;4.788;2023-04-05T07:16:08;102365.44;;;4.48;76.66
47220;BME280;32961;51.936;4.788;2023-04-05T07:18:36;102361.28;;;4.61;76.10
47220;BME280;32961;51.936;4.788;2023-04-05T07:21:03;102360.56;;;4.77;76.01
47220;BME280;32961;51.936;4.788;2023-04-05T07:23:31;102357.19;;;4.92;75.84
47220;BME280;32961;51.936;4.788;2023-04-05T07:26:01;102357.44;;;5.07;75.10
47220;BME280;32961;51.936;4.788;2023-04-05T07:28:31;102366.78;;;5.19;74.26
47220;BME280;32961;51.936;4.788;2023-04-05T07:31:01;102352.53;;;5.34;73.83
47220;BME280;32961;51.936;4.788;2023-04-05T07:33:29;102359.91;;;5.50;73.12
47220;BME280;32961;51.936;4.788;2023-04-05T07:35:57;102348.59;;;5.60;72.26
47220;BME280;32961;51.936;4.788;2023-04-05T07:38:25;102355.19;;;5.72;71.59
47220;BME280;32961;51.936;4.788;2023-04-05T07:40:54;102352.78;;;5.85;71.06
47220;BME280;32961;51.936;4.788;2023-04-05T07:43:24;102348.66;;;5.95;70.61
47220;BME280;32961;51.936;4.788;2023-04-05T07:46:00;102343.47;;;6.10;69.91
47220;BME280;32961;51.936;4.788;2023-04-05T07:48:28;102353.81;;;6.19;68.72
47220;BME280;32961;51.936;4.788;2023-04-05T07:50:56;102345.31;;;6.27;68.66
47220;BME280;32961;51.936;4.788;2023-04-05T07:53:24;102350.06;;;6.39;67.83
47220;BME280;32961;51.936;4.788;2023-04-05T07:55:51;102346.81;;;6.50;67.19
47220;BME280;32961;51.936;4.788;2023-04-05T07:58:19;102348.75;;;6.64;66.79
47220;BME280;32961;51.936;4.788;2023-04-05T08:00:49;102345.34;;;6.78;66.51
47220;BME280;32961;51.936;4.788;2023-04-05T08:03:18;102347.44;;;6.89;65.66
47220;BME280;32961;51.936;4.788;2023-04-05T08:05:46;102348.59;;;7.01;64.92
47220;BME280;32961;51.936;4.788;2023-04-05T08:08:14;102351.41;;;7.15;66.09
47220;BME280;32961;51.936;4.788;2023-04-05T08:10:42;102345.31;;;7.28;64.82
47220;BME280;32961;51.936;4.788;2023-04-05T08:13:09;102349.94;;;7.42;64.54
47220;BME280;32961;51.936;4.788;2023-04-05T08:15:39;102347.53;;;7.53;64.04
47220;BME280;32961;51.936;4.788;2023-04-05T08:18:08;102344.16;;;7.64;62.66
47220;BME280;32961;51.936;4.788;2023-04-05T08:20:37;102338.25;;;7.73;62.34
47220;BME280;32961;51.936;4.788;2023-04-05T08:23:06;102334.56;;;7.74;59.77
47220;BME280;32961;51.936;4.788;2023-04-05T08:25:34;102338.56;;;7.83;59.45
47220;BME280;32961;51.936;4.788;2023-04-05T08:28:02;102341.16;;;8.00;58.79
47220;BME280;32961;51.936;4.788;2023-04-05T08:30:30;102330.25;;;8.02;58.14
47220;BME280;32961;51.936;4.788;2023-04-05T08:32:58;102334.94;;;8.14;58.12
47220;BME280;32961;51.936;4.788;2023-04-05T08:35:27;102331.59;;;8.25;56.08
47220;BME280;32961;51.936;4.788;2023-04-05T08:37:56;102328.13;;;8.38;56.44
47220;BME280;32961;51.936;4.788;2023-04-05T08:40:29;102334.63;;;8.49;55.60
47220;BME280;32961;51.936;4.788;2023-04-05T08:43:07;102325.84;;;8.60;54.41
47220;BME280;32961;51.936;4.788;2023-04-05T08:45:49;102329.94;;;8.67;54.79
47220;BME280;32961;51.936;4.788;2023-04-05T08:48:18;102330.69;;;8.84;54.39
47220;BME280;32961;51.936;4.788;2023-04-05T08:50:50;102322.22;;;8.90;52.26
47220;BME280;32961;51.936;4.788;2023-04-05T08:53:19;102327.25;;;8.96;51.61
47220;BME280;32961;51.936;4.788;2023-04-05T08:55:48;102325.84;;;9.04;53.17
47220;BME280;32961;51.936;4.788;2023-04-05T08:58:19;102318.66;;;9.17;52.85
47220;BME280;32961;51.936;4.788;2023-04-05T09:00:49;102319.72;;;9.29;51.78
47220;BME280;32961;51.936;4.788;2023-04-05T09:03:21;102320.88;;;9.39;48.65
47220;BME280;32961;51.936;4.788;2023-04-05T09:05:51;102316.69;;;9.48;49.65
47220;BME280;32961;51.936;4.788;2023-04-05T09:08:19;102312.59;;;9.55;49.80
47220;BME280;32961;51.936;4.788;2023-04-05T09:10:48;102314.91;;;9.61;48.65
47220;BME280;32961;51.936;4.788;2023-04-05T09:13:17;102320.59;;;9.71;48.70
47220;BME280;32961;51.936;4.788;2023-04-05T09:15:45;102324.53;;;9.80;47.36
47220;BME280;32961;51.936;4.788;2023-04-05T09:18:13;102320.75;;;9.95;46.29
47220;BME280;32961;51.936;4.788;2023-04-05T09:21:01;102321.84;;;9.93;44.27
47220;BME280;32961;51.936;4.788;2023-04-05T09:23:29;102313.63;;;10.07;45.93
47220;BME280;32961;51.936;4.788;2023-04-05T09:25:57;102316.88;;;10.12;45.35
47220;BME280;32961;51.936;4.788;2023-04-05T09:28:39;102315.84;;;10.28;44.66
47220;BME280;32961;51.936;4.788;2023-04-05T09:31:09;102313.72;;;10.46;44.07
47220;BME280;32961;51.936;4.788;2023-04-05T09:33:37;102311.44;;;10.53;44.25
47220;BME280;32961;51.936;4.788;2023-04-05T09:36:06;102309.25;;;10.58;43.23
47220;BME280;32961;51.936;4.788;2023-04-05T09:38:44;102307.94;;;10.76;40.24
47220;BME280;32961;51.936;4.788;2023-04-05T09:41:13;102305.78;;;10.56;40.67
47220;BME280;32961;51.936;4.788;2023-04-05T09:43:41;102308.16;;;10.60;41.88
47220;BME280;32961;51.936;4.788;2023-04-05T09:46:27;102305.13;;;10.78;41.90
47220;BME280;32961;51.936;4.788;2023-04-05T09:48:56;102298.81;;;10.90;42.31
47220;BME280;32961;51.936;4.788;2023-04-05T09:51:31;102304.13;;;11.05;41.76
47220;BME280;32961;51.936;4.788;2023-04-05T09:54:00;102302.31;;;11.17;41.44
47220;BME280;32961;51.936;4.788;2023-04-05T09:56:30;102299.59;;;11.30;40.52
47220;BME280;32961;51.936;4.788;2023-04-05T09:58:58;102297.72;;;11.30;40.93
47220;BME280;32961;51.936;4.788;2023-04-05T10:01:29;102293.34;;;11.40;39.89
47220;BME280;32961;51.936;4.788;2023-04-05T10:03:58;102291.09;;;11.34;38.63
47220;BME280;32961;51.936;4.788;2023-04-05T10:06:37;102286.50;;;11.35;39.57
47220;BME280;32961;51.936;4.788;2023-04-05T10:09:07;102287.97;;;11.52;39.83
47220;BME280;32961;51.936;4.788;2023-04-05T10:11:35;102286.81;;;11.67;37.85
47220;BME280;32961;51.936;4.788;2023-04-05T10:14:05;102286.44;;;11.72;37.37
47220;BME280;32961;51.936;4.788;2023-04-05T10:16:36;102273.59;;;11.50;37.27
47220;BME280;32961;51.936;4.788;2023-04-05T10:19:07;102277.41;;;11.47;38.81
47220;BME280;32961;51.936;4.788;2023-04-05T10:21:42;102281.47;;;11.66;39.04
47220;BME280;32961;51.936;4.788;2023-04-05T10:24:17;102274.34;;;11.76;38.43
47220;BME280;32961;51.936;4.788;2023-04-05T10:26:54;102285.50;;;11.84;38.38
47220;BME280;32961;51.936;4.788;2023-04-05T10:29:31;102282.44;;;11.89;37.83
47220;BME280;32961;51.936;4.788;2023-04-05T10:32:05;102280.53;;;12.02;37.92
47220;BME280;32961;51.936;4.788;2023-04-05T10:34:41;102270.91;;;12.21;38.00
47220;BME280;32961;51.936;4.788;2023-04-05T10:37:26;102279.16;;;12.32;35.88
47220;BME280;32961;51.936;4.788;2023-04-05T10:40:01;102282.09;;;12.41;36.81
47220;BME280;32961;51.936;4.788;2023-04-05T10:42:35;102275.44;;;12.45;36.82
47220;BME280;32961;51.936;4.788;2023-04-05T10:45:06;102273.06;;;12.40;35.73
47220;BME280;32961;51.936;4.788;2023-04-05T10:47:41;102266.00;;;12.38;36.50
47220;BME280;32961;51.936;4.788;2023-04-05T10:50:16;102270.63;;;12.48;36.93
47220;BME280;32961;51.936;4.788;2023-04-05T10:52:48;102265.03;;;12.61;37.17
47220;BME280;32961;51.936;4.788;2023-04-05T10:55:17;102262.81;;;12.78;36.63
47220;BME280;32961;51.936;4.788;2023-04-05T10:57:46;102263.78;;;12.88;36.52
47220;BME280;32961;51.936;4.788;2023-04-05T11:00:16;102257.25;;;12.79;35.79
47220;BME280;32961;51.936;4.788;2023-04-05T11:02:46;102258.38;;;12.65;35.67
47220;BME280;32961;51.936;4.788;2023-04-05T11:05:31;102244.22;;;12.72;36.65
47220;BME280;32961;51.936;4.788;2023-04-05T11:08:06;102256.59;;;12.87;35.46
47220;BME280;32961;51.936;4.788;2023-04-05T11:10:36;102246.28;;;13.02;36.16
47220;BME280;32961;51.936;4.788;2023-04-05T11:13:06;102244.41;;;13.14;35.83
47220;BME280;32961;51.936;4.788;2023-04-05T11:15:34;102241.94;;;13.22;35.47
47220;BME280;32961;51.936;4.788;2023-04-05T11:18:07;102243.53;;;13.25;35.08
47220;BME280;32961;51.936;4.788;2023-04-05T11:20:43;102240.16;;;13.32;35.69
47220;BME280;32961;51.936;4.788;2023-04-05T11:23:13;102233.06;;;13.41;35.03
47220;BME280;32961;51.936;4.788;2023-04-05T11:25:46;102234.44;;;13.47;34.65
47220;BME280;32961;51.936;4.788;2023-04-05T11:28:27;102237.38;;;13.55;35.42
47220;BME280;32961;51.936;4.788;2023-04-05T11:30:55;102236.41;;;13.56;33.49
47220;BME280;32961;51.936;4.788;2023-04-05T11:33:40;102239.81;;;13.70;33.78
47220;BME280;32961;51.936;4.788;2023-04-05T11:36:36;102226.31;;;13.89;35.83
47220;BME280;32961;51.936;4.788;2023-04-05T11:39:24;102226.78;;;13.94;32.29
47220;BME280;32961;51.936;4.788;2023-04-05T11:41:58;102217.63;;;13.08;32.10
47220;BME280;32961;51.936;4.788;2023-04-05T11:44:27;102222.84;;;13.11;35.10
47220;BME280;32961;51.936;4.788;2023-04-05T11:46:56;102219.69;;;13.38;34.92
47220;BME280;32961;51.936;4.788;2023-04-05T11:49:24;102221.00;;;13.55;35.22
47220;BME280;32961;51.936;4.788;2023-04-05T11:51:52;102214.44;;;13.79;34.90
47220;BME280;32961;51.936;4.788;2023-04-05T11:54:29;102216.44;;;13.98;34.95
47220;BME280;32961;51.936;4.788;2023-04-05T11:56:57;102205.50;;;14.19;34.37
47220;BME280;32961;51.936;4.788;2023-04-05T11:59:30;102202.03;;;14.17;33.66
47220;BME280;32961;51.936;4.788;2023-04-05T12:01:59;102199.97;;;14.09;33.61
47220;BME280;32961;51.936;4.788;2023-04-05T12:04:27;102197.28;;;14.19;34.12
47220;BME280;32961;51.936;4.788;2023-04-05T12:07:12;102197.44;;;14.18;32.92
47220;BME280;32961;51.936;4.788;2023-04-05T12:10:01;102196.69;;;14.16;32.55
47220;BME280;32961;51.936;4.788;2023-04-05T12:12:33;102190.25;;;14.17;32.67
47220;BME280;32961;51.936;4.788;2023-04-05T12:15:02;102190.38;;;14.15;32.26
47220;BME280;32961;51.936;4.788;2023-04-05T12:17:44;102192.09;;;14.16;33.05
47220;BME280;32961;51.936;4.788;2023-04-05T12:20:14;102187.75;;;14.35;33.39
47220;BME280;32961;51.936;4.788;2023-04-05T12:22:43;102187.78;;;14.44;31.76
47220;BME280;32961;51.936;4.788;2023-04-05T12:25:13;102182.78;;;14.50;32.86
47220;BME280;32961;51.936;4.788;2023-04-05T12:27:41;102181.53;;;14.64;33.11
47220;BME280;32961;51.936;4.788;2023-04-05T12:30:12;102177.59;;;14.78;32.76
47220;BME280;32961;51.936;4.788;2023-04-05T12:32:44;102179.88;;;14.82;33.18
47220;BME280;32961;51.936;4.788;2023-04-05T12:35:14;102185.25;;;14.94;32.93
47220;BME280;32961;51.936;4.788;2023-04-05T12:37:42;102172.28;;;14.96;32.62
47220;BME280;32961;51.936;4.788;2023-04-05T12:40:12;102169.28;;;14.99;32.74
47220;BME280;32961;51.936;4.788;2023-04-05T12:42:40;102172.84;;;14.89;32.77
47220;BME280;32961;51.936;4.788;2023-04-05T12:45:10;102162.66;;;15.11;33.15
47220;BME280;32961;51.936;4.788;2023-04-05T12:47:49;102169.47;;;15.27;32.25
47220;BME280;32961;51.936;4.788;2023-04-05T12:50:23;102161.38;;;15.35;32.56
47220;BME280;32961;51.936;4.788;2023-04-05T12:52:57;102162.53;;;15.52;32.26
47220;BME280;32961;51.936;4.788;2023-04-05T12:55:28;102165.56;;;15.68;31.89
47220;BME280;32961;51.936;4.788;2023-04-05T12:57:58;102156.16;;;15.71;31.72
47220;BME280;32961;51.936;4.788;2023-04-05T13:00:27;102149.13;;;15.68;30.87
47220;BME280;32961;51.936;4.788;2023-04-05T13:02:57;102145.94;;;15.53;30.56
47220;BME280;32961;51.936;4.788;2023-04-05T13:05:27;102149.41;;;15.36;30.85
47220;BME280;32961;51.936;4.788;2023-04-05T13:07:55;102140.34;;;15.26;31.49
47220;BME280;32961;51.936;4.788;2023-04-05T13:10:24;102137.72;;;15.34;31.82
47220;BME280;32961;51.936;4.788;2023-04-05T13:12:53;102135.44;;;15.39;30.92